Time;durP1;ratioP1;P1;durP2;ratioP2;P2;SDS_P1;SDS_P2;PMS_P1;PMS_P2;Temp;Humidity;BMP_temperature;BMP_pressure;BME280_temperature;BME280_humidity;BME280_pressure;Samples;Min_cycle;Max_cycle;Signal;HPM_P1;HPM_P2
2023/12/14 00:00:35;;;;;;;1.80;1.40;;;9.70;99.80;;;10.02;64.36;97652.44;6280882;22;114690;-82
2023/12/14 00:03:10;;;;;;;2.00;1.30;;;10.50;99.50;;;10.03;64.57;97665.91;6282011;22;114158;-83
2023/12/14 00:05:36;;;;;;;2.73;1.30;;;11.50;99.80;;;10.03;64.24;97667.84;6253090;22;124124;-82
2023/12/14 00:08:05;;;;;;;2.97;1.40;;;9.70;99.50;;;10.02;64.21;97672.56;6227683;22;121357;-84
2023/12/14 00:10:32;;;;;;;2.40;1.23;;;9.70;99.50;;;10.02;64.28;97678.09;6255110;22;113296;-81
2023/12/14 00:13:10;;;;;;;2.07;1.17;;;9.70;99.50;;;10.00;64.56;97674.06;6282580;22;113195;-82
2023/12/14 00:15:44;;;;;;;2.37;1.30;;;10.30;99.20;;;9.95;64.25;97678.63;6282379;22;123261;-82
2023/12/14 00:18:13;;;;;;;1.10;0.97;;;12.20;99.90;;;9.91;64.14;97685.13;6286753;22;122783;-84
2023/12/14 00:20:52;;;;;;;1.90;1.40;;;9.70;99.30;;;9.88;63.97;97685.81;6296305;22;114379;-83
2023/12/14 00:23:21;;;;;;;2.13;1.10;;;9.70;99.20;;;9.83;64.22;97686.00;6292148;22;113950;-83
2023/12/14 00:25:47;;;;;;;2.40;1.27;;;10.10;98.90;;;9.78;64.00;97694.47;6283794;22;124195;-80
2023/12/14 00:28:19;;;;;;;1.23;1.10;;;10.50;99.20;;;9.76;64.64;97694.81;6166387;22;121726;-82
2023/12/14 00:30:46;;;;;;;2.63;1.23;;;9.60;99.20;;;9.77;64.77;97692.88;6192686;22;114004;-80
2023/12/14 00:33:15;;;;;;;2.43;1.10;;;11.60;99.70;;;9.80;64.53;97686.66;6192226;22;113413;-81
2023/12/14 00:35:45;;;;;;;2.30;1.00;;;12.40;99.90;;;9.78;64.70;97702.75;6188035;22;123988;-82
2023/12/14 00:38:14;;;;;;;1.93;1.37;;;9.50;99.40;;;9.80;64.51;97694.94;6184358;22;123995;-82
2023/12/14 00:40:50;;;;;;;1.20;1.07;;;10.00;99.30;;;9.81;64.37;97702.09;6184824;22;114130;-82
2023/12/14 00:43:30;;;;;;;3.93;1.47;;;13.00;99.90;;;9.81;64.86;97697.38;6183579;22;113736;-80
2023/12/14 00:45:56;;;;;;;1.53;1.10;;;9.70;99.90;;;9.82;64.63;97700.94;6183095;22;124168;-81
2023/12/14 00:48:23;;;;;;;1.33;1.20;;;11.30;99.90;;;9.83;64.48;97706.16;6183800;22;122372;-82
2023/12/14 00:50:50;;;;;;;3.80;1.30;;;11.20;99.80;;;9.85;64.48;97711.31;6159039;22;114657;-82
2023/12/14 00:53:17;;;;;;;2.37;1.30;;;13.30;99.90;;;9.83;64.39;97714.41;6186947;22;114269;-82
2023/12/14 00:55:50;;;;;;;2.00;1.30;;;9.60;99.80;;;9.85;64.44;97709.34;6184804;22;123257;-81
2023/12/14 00:58:21;;;;;;;1.47;1.13;;;12.50;99.90;;;9.85;64.55;97722.34;6188200;22;123085;-81
2023/12/14 01:00:49;;;;;;;1.50;1.33;;;12.60;99.90;;;9.85;64.48;97734.19;6280671;22;114498;-80
2023/12/14 01:03:28;;;;;;;1.30;1.20;;;9.50;99.70;;;9.86;64.66;97730.31;6227081;22;113475;-82
2023/12/14 01:06:00;;;;;;;4.00;1.37;;;11.50;99.90;;;9.89;64.44;97748.13;6281114;22;123736;-80
2023/12/14 01:08:33;;;;;;;2.37;1.40;;;9.70;99.60;;;9.83;64.16;97742.00;6253790;22;121789;-82
2023/12/14 01:11:10;;;;;;;4.33;1.60;;;12.50;99.90;;;9.77;64.69;97737.00;6253892;22;113688;-81
2023/12/14 01:13:45;;;;;;;1.40;1.00;;;9.60;99.30;;;9.72;64.29;97747.09;6254565;22;113486;-83
2023/12/14 01:16:19;;;;;;;6.20;1.33;;;8.90;99.30;;;9.70;64.64;97749.38;6256077;22;123948;-83
2023/12/14 01:18:53;;;;;;;2.10;1.47;;;11.40;99.70;;;9.67;64.50;97751.97;6256204;22;123594;-82
2023/12/14 01:21:20;;;;;;;2.03;1.30;;;10.00;99.20;;;9.63;64.49;97760.09;6255336;22;114114;-81
2023/12/14 01:23:46;;;;;;;2.33;1.67;;;11.90;99.90;;;9.63;64.32;97757.34;6252758;22;113279;-82
2023/12/14 01:26:15;;;;;;;2.30;1.43;;;11.70;99.90;;;9.63;64.39;97762.06;6282359;22;123032;-82
2023/12/14 01:28:41;;;;;;;1.73;1.20;;;11.20;99.70;;;9.61;64.30;97765.13;6282309;22;124030;-82
2023/12/14 01:31:14;;;;;;;2.07;1.20;;;12.30;99.90;;;9.62;64.69;97775.03;6282618;22;114386;-82
2023/12/14 01:33:42;;;;;;;9.50;1.30;;;11.50;99.80;;;9.63;64.45;97795.16;6284651;22;113166;-82
2023/12/14 01:36:08;;;;;;;2.43;1.53;;;9.30;99.50;;;9.61;64.68;97792.72;6285023;22;123428;-82
2023/12/14 01:38:36;;;;;;;2.30;1.40;;;12.50;99.90;;;9.60;64.95;97787.53;6257366;22;123083;-82
2023/12/14 01:41:04;;;;;;;2.27;1.70;;;12.20;99.90;;;9.61;64.94;97784.44;6256208;22;114618;-81
2023/12/14 01:43:31;;;;;;;2.33;1.30;;;9.40;99.50;;;9.63;64.89;97798.72;6255395;22;114929;-80
2023/12/14 01:46:15;;;;;;;1.70;1.20;;;12.00;99.90;;;9.65;64.86;97796.44;6281180;22;122585;-80
2023/12/14 01:48:42;;;;;;;2.00;1.33;;;8.30;99.30;;;9.70;64.96;97809.25;6254415;22;123067;-80
2023/12/14 01:51:10;;;;;;;3.30;1.50;;;9.60;99.90;;;9.70;64.94;97799.03;6281698;22;113554;-80
2023/12/14 01:53:40;;;;;;;2.90;1.50;;;9.40;99.80;;;9.73;65.20;97798.34;6228337;22;112569;-81
2023/12/14 01:56:10;;;;;;;1.47;1.23;;;13.10;99.90;;;9.76;64.83;97798.84;6283758;22;124262;-82
2023/12/14 01:58:37;;;;;;;2.73;1.60;;;9.90;99.80;;;9.74;65.23;97808.22;6257047;22;122764;-83
2023/12/14 02:01:13;;;;;;;2.00;1.70;;;9.50;99.90;;;9.81;64.78;97809.69;6283486;22;113849;-83
2023/12/14 02:03:47;;;;;;;2.70;1.40;;;9.50;99.70;;;9.79;65.33;97815.53;6284884;22;114170;-80
2023/12/14 02:06:15;;;;;;;2.37;1.20;;;12.90;99.90;;;9.80;65.21;97825.41;6284703;22;123318;-82
2023/12/14 02:08:48;;;;;;;1.10;1.00;;;10.80;99.80;;;9.81;64.79;97823.47;6285016;22;123830;-81
2023/12/14 02:11:17;;;;;;;1.63;1.33;;;9.50;99.90;;;9.79;65.25;97820.25;6284245;22;114003;-80
2023/12/14 02:13:46;;;;;;;2.90;1.30;;;9.50;99.90;;;9.80;64.71;97824.59;6228504;22;112299;-81
2023/12/14 02:16:28;;;;;;;1.87;1.10;;;9.50;99.90;;;9.77;64.99;97826.06;6256354;22;123147;-83
2023/12/14 02:19:00;;;;;;;1.67;1.20;;;9.50;99.90;;;9.76;64.70;97829.19;6264843;22;122493;-81
2023/12/14 02:21:27;;;;;;;3.20;1.37;;;12.90;99.90;;;9.74;64.87;97838.56;6284146;22;113623;-83
2023/12/14 02:23:54;;;;;;;1.10;0.97;;;12.50;99.90;;;9.73;64.78;97834.22;6257275;22;112394;-82
2023/12/14 02:26:26;;;;;;;2.03;1.13;;;13.00;99.90;;;9.73;64.80;97831.44;6283294;22;123210;-84
2023/12/14 02:28:54;;;;;;;2.10;1.17;;;7.50;99.50;;;9.74;65.08;97841.34;6281830;22;123980;-82
2023/12/14 02:31:23;;;;;;;1.50;1.10;;;11.80;99.90;;;9.76;64.90;97846.53;6255076;22;113352;-81
2023/12/14 02:33:51;;;;;;;1.97;1.10;;;9.50;99.70;;;9.78;64.97;97843.44;6283625;22;114162;-81
2023/12/14 02:36:17;;;;;;;1.50;1.27;;;9.50;99.90;;;9.80;64.98;97841.16;6285909;22;123515;-85
2023/12/14 02:38:52;;;;;;;1.60;0.97;;;13.10;99.90;;;9.80;65.10;97849.44;6258251;22;123679;-84
2023/12/14 02:41:20;;;;;;;1.30;1.20;;;13.00;99.90;;;9.82;64.97;97849.91;6256929;22;113628;-81
2023/12/14 02:43:49;;;;;;;3.13;1.40;;;12.50;99.90;;;9.81;65.06;97856.59;6284799;22;113084;-82
2023/12/14 02:46:18;;;;;;;1.73;1.10;;;13.00;99.90;;;9.80;64.76;97852.19;6283639;22;124047;-84
2023/12/14 02:48:44;;;;;;;1.87;1.17;;;12.70;99.90;;;9.80;64.72;97855.75;6285205;22;122964;-83
2023/12/14 02:51:15;;;;;;;1.73;1.00;;;7.40;98.90;;;9.82;64.92;97867.28;6284012;22;113860;-83
2023/12/14 02:53:42;;;;;;;1.50;1.00;;;12.00;99.90;;;9.83;64.75;97862.56;6283900;22;113135;-82
2023/12/14 02:56:15;;;;;;;2.40;1.00;;;11.00;99.90;;;9.80;64.58;97865.97;6257331;22;124430;-83
2023/12/14 02:58:44;;;;;;;1.80;1.20;;;12.20;99.90;;;9.77;64.55;97859.16;6285361;22;122985;-82
2023/12/14 03:01:10;;;;;;;1.07;0.90;;;10.40;99.70;;;9.79;64.44;97862.41;6232144;22;112374;-83
2023/12/14 03:03:39;;;;;;;1.00;0.90;;;12.70;99.90;;;9.76;64.51;97863.09;6286933;22;113504;-84
2023/12/14 03:06:08;;;;;;;2.00;1.10;;;12.90;99.90;;;9.80;64.50;97872.31;6289350;22;124088;-81
2023/12/14 03:08:35;;;;;;;2.17;1.10;;;7.10;98.90;;;9.78;64.80;97871.84;6289251;22;123973;-82
2023/12/14 03:11:02;;;;;;;1.77;1.10;;;9.50;99.90;;;9.79;64.38;97873.44;6290121;22;113547;-85
2023/12/14 03:13:32;;;;;;;2.60;1.20;;;9.50;99.80;;;9.77;64.35;97878.47;6233149;22;113065;-83
2023/12/14 03:16:00;;;;;;;1.00;0.90;;;12.40;99.90;;;9.77;64.43;97883.19;6283200;22;123497;-82
2023/12/14 03:18:32;;;;;;;2.70;1.37;;;9.50;99.60;;;9.77;64.14;97889.50;6283430;22;124088;-83
2023/12/14 03:21:06;;;;;;;1.53;1.20;;;12.70;99.90;;;9.77;64.79;97891.47;6283890;22;114878;-82
2023/12/14 03:23:33;;;;;;;1.80;1.07;;;9.50;99.90;;;9.77;64.52;97897.78;6256609;22;112863;-85
2023/12/14 03:26:04;;;;;;;2.13;1.20;;;9.80;99.80;;;9.73;64.47;97897.66;6255397;22;122633;-81
2023/12/14 03:28:40;;;;;;;1.30;1.10;;;9.50;99.80;;;9.72;64.72;97907.06;6256564;22;122081;-82
2023/12/14 03:31:07;;;;;;;2.33;1.30;;;9.80;99.90;;;9.76;64.47;97912.72;6283403;22;113566;-83
2023/12/14 03:33:37;;;;;;;1.47;1.10;;;12.30;99.90;;;9.74;64.78;97915.00;6256982;22;114068;-83
2023/12/14 03:36:07;;;;;;;1.70;1.23;;;13.10;99.90;;;9.74;64.56;97915.81;6283238;22;122890;-82
2023/12/14 03:38:37;;;;;;;1.30;1.10;;;9.50;99.60;;;9.75;64.41;97922.13;6283067;22;123629;-82
2023/12/14 03:41:12;;;;;;;1.13;1.03;;;9.40;99.80;;;9.72;64.89;97929.16;6256392;22;113869;-83
2023/12/14 03:43:38;;;;;;;1.47;1.20;;;11.70;99.90;;;9.71;64.82;97938.53;6255229;22;113906;-84
2023/12/14 03:46:16;;;;;;;1.20;0.97;;;12.60;99.90;;;9.72;64.56;97942.94;6254833;22;123593;-83
2023/12/14 03:48:43;;;;;;;1.80;1.10;;;11.30;99.90;;;9.71;64.81;97941.28;6258855;22;122622;-83
2023/12/14 03:51:13;;;;;;;1.60;1.13;;;12.70;99.90;;;9.69;64.69;97951.03;6283533;22;113528;-83
2023/12/14 03:53:40;;;;;;;1.40;1.13;;;11.20;99.90;;;9.68;64.71;97943.91;6257683;22;112165;-82
2023/12/14 03:56:08;;;;;;;1.10;1.00;;;12.40;99.90;;;9.64;65.13;97952.00;6257123;22;122350;-82
2023/12/14 03:58:37;;;;;;;1.30;1.00;;;9.50;99.80;;;9.63;65.12;97953.16;6287650;22;123128;-82
2023/12/14 04:01:06;;;;;;;1.10;1.00;;;9.50;99.90;;;9.62;65.12;97961.78;6232806;22;112473;-81
2023/12/14 04:03:35;;;;;;;3.37;1.23;;;8.40;99.10;;;9.61;64.93;97952.66;6258891;22;112042;-82
2023/12/14 04:06:03;;;;;;;3.20;1.13;;;12.10;99.90;;;9.63;64.68;97964.19;6285334;22;123404;-83
2023/12/14 04:08:33;;;;;;;3.17;1.23;;;9.50;99.90;;;9.63;64.78;97957.88;6255980;22;123127;-81
2023/12/14 04:11:01;;;;;;;1.60;1.10;;;8.60;99.50;;;9.63;65.18;97969.69;6285141;22;114612;-81
2023/12/14 04:13:33;;;;;;;2.03;1.27;;;11.60;99.90;;;9.68;65.32;97977.00;6259864;22;115329;-81
2023/12/14 04:15:59;;;;;;;2.47;1.30;;;11.40;99.90;;;9.66;64.96;97985.59;6285426;22;123881;-83
2023/12/14 04:18:27;;;;;;;1.50;1.13;;;9.40;99.80;;;9.69;64.91;97984.94;6257512;22;123365;-81
2023/12/14 04:21:06;;;;;;;3.43;1.07;;;12.80;99.90;;;9.66;65.39;97988.34;6285074;22;114556;-82
2023/12/14 04:23:34;;;;;;;2.33;1.00;;;7.10;98.90;;;9.67;65.34;97997.44;6286900;22;114216;-84
2023/12/14 04:26:02;;;;;;;1.93;1.37;;;12.60;99.90;;;9.68;65.31;97999.88;6258833;22;122579;-81
2023/12/14 04:28:30;;;;;;;1.40;1.20;;;9.40;99.90;;;9.70;65.63;97997.59;6230884;22;122230;-83
2023/12/14 04:30:56;;;;;;;1.90;1.20;;;12.40;99.90;;;9.70;65.59;98005.88;6283756;22;113501;-83
2023/12/14 04:33:31;;;;;;;1.53;0.90;;;11.60;99.90;;;9.74;65.55;98014.31;6284277;22;113803;-83
2023/12/14 04:35:58;;;;;;;3.80;1.20;;;11.30;99.90;;;9.71;65.43;98014.97;6285021;22;123673;-81
2023/12/14 04:38:31;;;;;;;3.00;1.30;;;13.00;99.90;;;9.74;65.12;98012.34;6284090;22;123301;-83
2023/12/14 04:40:58;;;;;;;1.23;1.10;;;9.70;99.90;;;9.73;65.42;98019.03;6255501;22;112946;-82
2023/12/14 04:43:24;;;;;;;3.13;1.10;;;9.20;99.90;;;9.71;65.29;98015.78;6283503;22;113769;-82
2023/12/14 04:45:51;;;;;;;1.90;1.37;;;9.40;99.90;;;9.72;65.72;98019.34;6254673;22;122496;-82
2023/12/14 04:48:19;;;;;;;1.60;1.03;;;11.70;99.90;;;9.73;65.64;98020.97;6254099;22;122843;-84
2023/12/14 04:50:48;;;;;;;1.70;1.10;;;12.60;99.90;;;9.74;65.55;98033.63;6280677;22;113629;-84
2023/12/14 04:53:27;;;;;;;1.70;1.10;;;8.20;99.70;;;9.72;65.73;98020.16;6283019;22;113359;-84
2023/12/14 04:55:58;;;;;;;3.17;1.30;;;9.50;99.90;;;9.76;65.75;98027.78;6255837;22;124091;-83
2023/12/14 04:58:32;;;;;;;1.43;1.20;;;12.40;99.90;;;9.76;65.61;98036.88;6284423;22;123745;-82
2023/12/14 05:01:07;;;;;;;1.60;1.27;;;13.00;99.90;;;9.77;65.71;98034.91;6282711;22;114547;-84
2023/12/14 05:03:35;;;;;;;4.73;1.30;;;9.40;99.90;;;9.77;65.96;98040.44;6256296;22;115116;-83
2023/12/14 05:06:07;;;;;;;1.30;1.20;;;9.50;99.90;;;9.81;65.52;98046.94;6229353;22;122790;-84
2023/12/14 05:08:34;;;;;;;2.03;1.10;;;9.70;99.90;;;9.78;65.97;98059.44;6253519;22;122107;-83
2023/12/14 05:11:01;;;;;;;1.70;1.33;;;11.40;99.90;;;9.81;66.01;98052.44;6286590;22;113441;-82
2023/12/14 05:13:28;;;;;;;1.40;1.27;;;12.90;99.90;;;9.83;65.60;98058.44;6261624;22;113257;-81
2023/12/14 05:15:57;;;;;;;2.60;1.50;;;11.20;99.90;;;9.78;65.84;98055.84;6257114;22;122358;-83
2023/12/14 05:18:25;;;;;;;1.67;1.30;;;12.20;99.90;;;9.83;65.90;98070.31;6284276;22;123272;-83
2023/12/14 05:20:51;;;;;;;1.93;1.30;;;9.60;99.90;;;9.81;65.71;98069.00;6253885;22;112740;-81
2023/12/14 05:23:18;;;;;;;2.03;1.47;;;10.30;99.90;;;9.81;65.46;98074.53;6256672;22;113201;-83
2023/12/14 05:25:46;;;;;;;2.10;1.57;;;12.90;99.90;;;9.79;65.42;98077.59;6282851;22;123289;-84
2023/12/14 05:28:14;;;;;;;2.40;1.47;;;12.80;99.90;;;9.84;65.56;98090.41;6282091;22;123043;-84
2023/12/14 05:30:44;;;;;;;1.60;1.20;;;10.20;99.90;;;9.82;65.86;98087.97;6228743;22;112509;-84
2023/12/14 05:33:18;;;;;;;1.50;1.30;;;12.50;99.90;;;9.83;65.85;98100.66;6254950;22;113318;-83
2023/12/14 05:35:47;;;;;;;2.10;1.50;;;11.10;99.90;;;9.84;65.80;98096.75;6252987;22;122172;-82
2023/12/14 05:38:14;;;;;;;1.43;1.30;;;9.60;99.90;;;9.87;65.42;98112.66;6225169;22;122957;-82
2023/12/14 05:40:41;;;;;;;1.47;1.30;;;12.60;99.90;;;9.91;65.75;98119.16;6251639;22;114799;-83
2023/12/14 05:43:11;;;;;;;1.67;1.20;;;12.10;99.90;;;9.91;65.39;98121.06;6281123;22;114042;-81
2023/12/14 05:45:38;;;;;;;3.07;2.20;;;9.80;99.90;;;9.91;65.39;98134.88;6281670;22;123190;-83
2023/12/14 05:48:08;;;;;;;1.50;1.40;;;12.60;99.90;;;9.88;65.71;98124.50;6280414;22;122993;-83
2023/12/14 05:50:36;;;;;;;1.90;1.60;;;7.90;99.70;;;9.90;65.97;98141.53;6281115;22;114768;-84
2023/12/14 05:53:02;;;;;;;2.03;1.40;;;6.60;99.40;;;9.86;66.22;98133.09;6281117;22;115029;-84
2023/12/14 05:55:33;;;;;;;2.60;1.60;;;9.60;99.90;;;9.87;65.86;98139.44;6280493;22;124313;-83
2023/12/14 05:58:01;;;;;;;2.00;1.43;;;9.70;99.90;;;9.79;66.34;98138.28;6279001;22;122871;-84
2023/12/14 06:00:31;;;;;;;1.77;1.37;;;9.60;99.90;;;9.73;66.16;98139.59;6278507;22;113503;-84
2023/12/14 06:03:02;;;;;;;3.13;2.03;;;9.60;99.90;;;9.71;66.31;98137.13;6280248;22;113134;-81
2023/12/14 06:05:32;;;;;;;2.73;1.63;;;10.90;99.90;;;9.70;66.68;98157.59;6279606;22;123428;-82
2023/12/14 06:07:59;;;;;;;1.97;1.40;;;9.30;99.90;;;9.68;66.42;98151.56;6250516;22;122990;-82
2023/12/14 06:10:39;;;;;;;2.37;1.70;;;9.50;99.90;;;9.64;66.44;98147.81;6281867;22;114174;-82
2023/12/14 06:13:06;;;;;;;1.57;1.40;;;10.20;99.90;;;9.63;66.92;98156.44;6285422;22;113658;-81
2023/12/14 06:15:32;;;;;;;2.00;1.50;;;12.60;99.90;;;9.63;66.82;98160.00;6284072;22;123116;-83
2023/12/14 06:18:05;;;;;;;6.90;1.90;;;9.50;99.90;;;9.68;66.99;98164.56;6283101;22;122901;-83
2023/12/14 06:20:32;;;;;;;3.00;1.90;;;11.30;99.90;;;9.70;66.87;98168.63;6285946;22;113923;-83
2023/12/14 06:23:12;;;;;;;3.73;1.87;;;9.50;99.90;;;9.73;67.02;98175.44;6281592;22;113427;-82
2023/12/14 06:25:41;;;;;;;2.50;1.70;;;9.60;99.90;;;9.72;66.96;98180.16;6279347;22;124009;-81
2023/12/14 06:28:07;;;;;;;3.30;1.57;;;10.10;99.90;;;9.72;67.09;98180.16;6277933;22;124340;-83
2023/12/14 06:30:36;;;;;;;2.10;1.67;;;9.40;99.90;;;9.76;67.19;98187.78;6277495;22;113321;-85
2023/12/14 06:33:08;;;;;;;3.67;1.70;;;9.50;99.90;;;9.77;67.20;98194.91;6279268;22;113220;-81
2023/12/14 06:35:43;;;;;;;4.33;1.87;;;9.50;99.90;;;9.80;66.86;98200.59;6277494;22;124113;-83
2023/12/14 06:38:10;;;;;;;2.50;1.93;;;12.60;99.90;;;9.84;67.01;98196.06;6278995;22;123284;-87
2023/12/14 06:40:38;;;;;;;4.03;1.97;;;9.50;99.90;;;9.85;67.31;98203.19;6279690;22;114756;-83
2023/12/14 06:43:08;;;;;;;2.23;1.63;;;11.40;99.90;;;9.86;67.21;98212.28;6276501;22;115056;-81
2023/12/14 06:45:39;;;;;;;2.07;1.87;;;11.20;99.90;;;9.86;67.16;98213.13;6280881;22;123733;-83
2023/12/14 06:48:06;;;;;;;1.87;1.60;;;9.60;99.90;;;9.88;67.34;98218.28;6212309;22;121670;-84
2023/12/14 06:50:34;;;;;;;2.50;1.73;;;9.60;99.90;;;9.90;67.38;98222.38;6212069;22;114014;-81
2023/12/14 06:53:10;;;;;;;2.93;2.13;;;9.60;99.90;;;9.95;67.06;98229.69;6212356;22;112500;-85
2023/12/14 06:55:39;;;;;;;2.13;1.80;;;9.60;99.90;;;9.94;67.07;98228.06;6186328;22;122246;-82
2023/12/14 06:58:11;;;;;;;2.43;2.10;;;13.70;99.90;;;9.93;66.84;98235.50;6186632;22;123937;-83
2023/12/14 07:00:45;;;;;;;3.30;2.33;;;9.60;99.90;;;9.95;66.65;98243.47;6211376;22;113494;-82
2023/12/14 07:03:13;;;;;;;2.77;2.30;;;12.80;99.90;;;9.95;67.11;98257.28;6186121;22;112856;-80
2023/12/14 07:05:42;;;;;;;3.13;2.00;;;10.20;99.90;;;9.96;66.74;98267.97;6212490;22;124113;-81
2023/12/14 07:08:15;;;;;;;3.00;2.37;;;9.60;99.90;;;9.97;66.84;98266.06;6186119;22;122720;-83
2023/12/14 07:10:42;;;;;;;2.43;2.10;;;10.50;99.90;;;9.98;66.96;98277.91;6211606;22;114310;-82
2023/12/14 07:13:11;;;;;;;2.50;2.00;;;9.70;99.90;;;9.97;67.09;98279.84;6212393;22;113835;-80
2023/12/14 07:15:38;;;;;;;2.30;1.93;;;9.70;99.90;;;9.99;66.45;98296.88;6211591;22;123710;-79
2023/12/14 07:18:09;;;;;;;3.37;2.53;;;9.70;99.90;;;9.99;66.53;98301.59;6186050;22;123718;-80
2023/12/14 07:20:39;;;;;;;3.17;2.00;;;9.80;99.90;;;10.00;66.66;98301.28;6276372;22;113459;-82
2023/12/14 07:23:05;;;;;;;5.40;2.67;;;9.60;99.90;;;10.02;66.65;98312.81;6247016;22;114012;-80
2023/12/14 07:25:34;;;;;;;2.70;2.10;;;12.70;99.90;;;10.03;66.93;98313.63;6277277;22;123279;-79
2023/12/14 07:28:01;;;;;;;4.00;2.27;;;9.80;99.90;;;10.02;66.85;98312.81;6274234;22;123814;-79
2023/12/14 07:30:28;;;;;;;2.57;2.13;;;12.30;99.90;;;10.05;66.55;98319.66;6274889;22;115140;-80
2023/12/14 07:32:55;;;;;;;2.67;2.20;;;9.70;99.90;;;10.04;66.46;98321.56;6276369;22;114958;-79
2023/12/14 07:35:25;;;;;;;5.20;2.77;;;9.70;99.90;;;10.04;66.41;98329.84;6275620;22;124018;-84
2023/12/14 07:37:52;;;;;;;3.43;2.50;;;13.50;99.90;;;10.01;66.69;98330.50;6274702;22;122630;-80
2023/12/14 07:40:18;;;;;;;2.47;2.27;;;9.70;99.90;;;10.01;66.25;98327.75;6273259;22;113467;-80
2023/12/14 07:42:45;;;;;;;2.63;2.40;;;9.80;99.90;;;10.02;66.48;98334.91;6245608;22;112740;-80
2023/12/14 07:45:11;;;;;;;3.70;2.60;;;9.80;99.90;;;10.01;66.56;98330.50;6273954;22;124299;-81
2023/12/14 07:47:38;;;;;;;3.60;2.57;;;9.80;99.90;;;10.06;66.47;98343.34;6274211;22;123864;-80
2023/12/14 07:50:12;;;;;;;4.13;2.20;;;10.90;99.90;;;10.08;66.22;98339.13;6247233;22;114391;-83
2023/12/14 07:52:39;;;;;;;3.50;3.00;;;12.80;99.90;;;10.07;66.08;98337.50;6245852;22;114100;-81
2023/12/14 07:55:07;;;;;;;3.40;2.80;;;10.10;99.90;;;10.10;66.40;98347.91;6245265;22;123671;-83
2023/12/14 07:57:33;;;;;;;4.20;3.10;;;9.80;99.90;;;10.10;66.39;98345.16;6245488;22;123765;-80
2023/12/14 08:00:03;;;;;;;3.90;3.00;;;9.80;99.90;;;10.11;66.33;98346.78;6245962;22;114004;-83
2023/12/14 08:02:33;;;;;;;4.90;2.60;;;9.80;99.90;;;10.12;66.35;98356.66;6246744;22;113968;-81
2023/12/14 08:04:59;;;;;;;4.13;2.50;;;9.80;99.90;;;10.14;66.15;98365.44;6273608;22;124666;-80
2023/12/14 08:07:29;;;;;;;4.00;2.33;;;9.90;99.90;;;10.17;66.55;98364.81;6272686;22;124552;-82
2023/12/14 08:09:59;;;;;;;4.83;3.53;;;11.50;99.90;;;10.20;66.41;98368.88;6278083;22;113762;-86
2023/12/14 08:12:32;;;;;;;7.47;3.93;;;11.40;99.90;;;10.26;66.60;98372.28;6265480;22;113176;-86
2023/12/14 08:15:11;;;;;;;3.77;2.90;;;9.90;99.90;;;10.31;67.37;98378.50;6283027;22;123840;-87
2023/12/14 08:17:41;;;;;;;9.80;3.57;;;13.20;99.90;;;10.36;66.82;98374.78;6259935;22;122254;-87
2023/12/14 08:20:12;;;;;;;3.80;3.13;;;12.50;99.90;;;10.39;66.99;98393.47;6262542;22;113598;-87
2023/12/14 08:22:45;;;;;;;5.07;3.37;;;10.00;99.90;;;10.36;66.87;98392.16;6263088;22;114194;-87
2023/12/14 08:25:17;;;;;;;5.77;3.33;;;11.50;99.90;;;10.37;66.65;98404.84;6267151;22;124173;-88
2023/12/14 08:28:06;;;;;;;5.83;3.27;;;10.00;99.90;;;10.36;66.84;98405.16;6268973;22;122531;-87
2023/12/14 08:30:42;;;;;;;3.80;3.20;;;10.00;99.90;;;10.34;66.74;98412.94;6293623;22;113798;-87
2023/12/14 08:33:10;;;;;;;7.30;3.60;;;10.00;99.90;;;10.35;66.81;98420.13;6293112;22;113677;-86
2023/12/14 08:35:43;;;;;;;4.80;3.50;;;10.10;99.90;;;10.37;66.35;98426.16;6294976;22;123777;-87
2023/12/14 08:38:12;;;;;;;4.13;3.17;;;10.10;99.90;;;10.39;66.83;98427.41;6263969;22;123329;-87
2023/12/14 08:41:00;;;;;;;5.67;3.53;;;10.10;99.90;;;10.44;66.83;98428.41;6257280;22;113107;-88
2023/12/14 08:43:26;;;;;;;5.60;3.27;;;10.10;99.90;;;10.47;66.65;98441.59;6289142;22;113008;-88
2023/12/14 08:45:53;;;;;;;4.80;3.30;;;10.10;99.90;;;10.49;66.36;98440.13;6264289;22;123424;-87
2023/12/14 08:48:26;;;;;;;4.10;3.60;;;10.30;99.90;;;10.50;66.22;98454.75;6266083;22;123046;-88
2023/12/14 08:50:55;;;;;;;4.93;3.30;;;11.70;99.90;;;10.48;66.35;98457.84;6259564;22;112106;-88
2023/12/14 08:53:32;;;;;;;3.87;3.40;;;10.20;99.90;;;10.50;66.63;98472.13;6287681;22;114457;-87
2023/12/14 08:56:08;;;;;;;4.20;3.20;;;10.20;99.90;;;10.49;66.00;98470.50;6286974;22;123604;-88
2023/12/14 08:58:38;;;;;;;6.13;2.90;;;10.20;99.90;;;10.49;66.26;98484.31;6267653;22;122921;-86
2023/12/14 09:01:06;;;;;;;3.87;3.17;;;11.20;99.90;;;10.50;66.07;98494.22;6268917;22;114124;-87
2023/12/14 09:03:35;;;;;;;5.57;3.50;;;10.20;99.90;;;10.52;66.07;98491.16;6266568;22;113557;-85
2023/12/14 09:06:07;;;;;;;4.33;3.50;;;10.90;99.90;;;10.53;66.01;98496.38;6291640;22;124097;-85
2023/12/14 09:08:44;;;;;;;5.00;3.30;;;10.20;99.90;;;10.54;66.10;98499.94;6293937;22;123419;-87
2023/12/14 09:11:16;;;;;;;5.20;3.50;;;10.20;99.90;;;10.53;66.31;98504.66;6293286;22;114309;-87
2023/12/14 09:14:10;;;;;;;5.10;3.50;;;10.20;99.90;;;10.53;65.88;98510.19;6268449;22;113744;-86
2023/12/14 09:16:46;;;;;;;5.57;3.30;;;10.30;99.90;;;10.51;65.53;98512.44;6264585;22;121922;-86
2023/12/14 09:19:14;;;;;;;3.93;3.00;;;13.90;99.90;;;10.49;65.93;98514.72;6261180;22;123354;-86
2023/12/14 09:21:41;;;;;;;4.33;3.70;;;10.20;99.90;;;10.51;66.04;98517.16;6261102;22;114314;-87
2023/12/14 09:24:10;;;;;;;5.10;3.73;;;12.10;99.90;;;10.50;66.04;98521.84;6265421;22;113717;-88
2023/12/14 09:26:37;;;;;;;7.27;4.03;;;10.20;99.90;;;10.50;65.98;98516.31;6260836;22;123717;-86
2023/12/14 09:29:04;;;;;;;3.60;3.30;;;13.80;99.90;;;10.51;65.76;98529.03;6261510;22;123438;-88
2023/12/14 09:31:35;;;;;;;5.40;3.30;;;10.20;99.90;;;10.50;65.38;98527.38;6260511;22;112874;-87
2023/12/14 09:34:12;;;;;;;4.40;3.70;;;10.20;99.90;;;10.50;65.70;98543.94;6291342;22;113626;-85
2023/12/14 09:37:07;;;;;;;7.17;3.70;;;10.20;99.90;;;10.50;65.75;98543.94;6257117;22;123981;-86
2023/12/14 09:39:34;;;;;;;5.50;3.20;;;10.30;99.90;;;10.50;65.89;98552.22;6149455;22;122316;-88
2023/12/14 09:42:10;;;;;;;4.47;3.63;;;13.10;99.90;;;10.50;65.69;98549.47;6221065;22;113418;-81
2023/12/14 09:44:40;;;;;;;5.50;4.07;;;10.20;99.90;;;10.50;66.02;98552.22;6189536;22;113326;-84
2023/12/14 09:47:17;;;;;;;6.10;4.30;;;10.30;99.90;;;10.51;66.04;98556.66;6169875;22;122564;-86
2023/12/14 09:49:45;;;;;;;6.33;3.40;;;7.80;99.80;;;10.53;65.45;98564.59;6158206;22;122880;-87
2023/12/14 09:52:12;;;;;;;5.73;4.27;;;11.80;99.90;;;10.47;65.67;98561.16;6142643;22;113527;-81
2023/12/14 09:54:39;;;;;;;4.90;4.20;;;10.90;99.90;;;10.43;65.76;98562.94;6149144;22;113225;-81
2023/12/14 09:57:06;;;;;;;4.97;3.77;;;10.20;99.90;;;10.45;66.23;98568.13;6149469;22;123306;-83
2023/12/14 10:00:15;;;;;;;5.67;4.20;;;10.30;99.90;;;10.44;66.31;98564.56;6155892;22;123761;-85
2023/12/14 10:02:50;;;;;;;6.80;4.80;;;10.20;99.90;;;10.46;66.31;98567.03;6054262;23;114839;-87
2023/12/14 10:05:40;;;;;;;7.10;5.40;;;10.20;99.90;;;10.45;66.41;98571.75;6134881;22;112488;-87
2023/12/14 10:08:09;;;;;;;10.60;4.80;;;10.20;99.90;;;10.47;66.44;98572.22;6170826;22;124575;-88
2023/12/14 10:10:41;;;;;;;6.50;4.63;;;10.20;99.90;;;10.52;65.92;98569.31;6191470;22;123512;-88
2023/12/14 10:13:15;;;;;;;8.07;5.57;;;10.30;99.90;;;10.57;66.48;98579.41;6227413;22;113324;-86
2023/12/14 10:15:46;;;;;;;6.50;4.77;;;10.30;99.90;;;10.60;66.46;98582.34;6225159;22;114165;-87
2023/12/14 10:18:26;;;;;;;6.90;4.80;;;10.30;99.90;;;10.67;66.39;98583.88;6171481;22;122657;-88
2023/12/14 10:20:58;;;;;;;6.83;5.00;;;10.30;99.90;;;10.70;65.96;98581.28;6218974;22;124194;-85
2023/12/14 10:23:26;;;;;;;12.03;4.73;;;10.40;99.90;;;10.73;66.09;98596.41;6243210;22;113330;-84
2023/12/14 10:25:54;;;;;;;7.43;5.20;;;10.40;99.90;;;10.74;65.91;98598.81;6228512;22;113284;-84
2023/12/14 10:28:24;;;;;;;8.27;4.77;;;10.50;99.90;;;10.78;65.68;98597.06;6282360;22;121884;-86
2023/12/14 10:30:53;;;;;;;8.00;4.80;;;10.50;99.90;;;10.82;65.65;98595.28;6289688;22;123859;-85
2023/12/14 10:33:20;;;;;;;9.17;4.60;;;10.50;99.90;;;10.86;65.98;98601.00;6289598;22;113770;-85